Time;durP1;ratioP1;P1;durP2;ratioP2;P2;SDS_P1;SDS_P2;PMS_P1;PMS_P2;Temp;Humidity;BMP_temperature;BMP_pressure;BME280_temperature;BME280_humidity;BME280_pressure;Samples;Min_cycle;Max_cycle;Signal;HPM_P1;HPM_P2
2022/11/19 00:01:10;;;;;;;2.33;2.03;;;9.10;95.50;;;;;;5063529;28;20701;-45
2022/11/19 00:03:36;;;;;;;4.67;2.90;;;9.00;95.50;;;;;;5097652;28;20481;-43
2022/11/19 00:06:08;;;;;;;3.13;2.50;;;9.00;95.60;;;;;;5078816;28;20425;-44
2022/11/19 00:08:34;;;;;;;2.70;2.00;;;9.00;95.70;;;;;;5096293;28;20415;-42
2022/11/19 00:11:10;;;;;;;2.73;2.10;;;9.00;95.70;;;;;;5096437;28;20423;-43
2022/11/19 00:13:38;;;;;;;3.00;1.90;;;9.00;95.80;;;;;;5097912;28;20825;-45
2022/11/19 00:16:07;;;;;;;3.00;2.30;;;9.00;95.80;;;;;;5077269;28;20956;-43
2022/11/19 00:18:33;;;;;;;3.10;2.37;;;8.90;95.80;;;;;;5095281;28;20407;-43
2022/11/19 00:21:11;;;;;;;2.20;1.80;;;8.90;95.90;;;;;;5096400;28;20487;-44
2022/11/19 00:23:37;;;;;;;3.30;2.03;;;8.90;95.90;;;;;;5079689;28;20850;-44
2022/11/19 00:26:11;;;;;;;3.10;2.37;;;8.90;95.90;;;;;;5096234;28;20449;-42
2022/11/19 00:28:37;;;;;;;4.53;1.70;;;8.90;95.90;;;;;;5097634;28;20458;-44
2022/11/19 00:31:05;;;;;;;3.20;2.17;;;8.90;96.00;;;;;;5096983;28;20454;-45
2022/11/19 00:33:31;;;;;;;1.80;1.40;;;8.80;96.00;;;;;;5096256;28;20426;-43
2022/11/19 00:35:58;;;;;;;1.80;1.10;;;8.80;96.00;;;;;;5078951;28;20476;-44
2022/11/19 00:38:24;;;;;;;2.07;1.33;;;8.80;96.00;;;;;;5095483;28;20768;-44
2022/11/19 00:40:49;;;;;;;2.50;1.33;;;8.80;96.30;;;;;;5097407;28;20505;-44
2022/11/19 00:45:59;;;;;;;2.03;1.40;;;8.80;96.00;;;;;;5095418;28;20188;-45
2022/11/19 00:48:25;;;;;;;2.13;0.90;;;8.70;95.90;;;;;;5096712;28;20420;-46
2022/11/19 00:50:50;;;;;;;1.30;0.93;;;8.70;95.90;;;;;;5096572;28;20234;-42
2022/11/19 00:53:16;;;;;;;2.23;1.30;;;8.70;95.90;;;;;;5096003;28;20454;-44
2022/11/19 00:55:41;;;;;;;1.63;1.20;;;8.70;96.00;;;;;;5096762;28;20227;-46
2022/11/19 00:58:07;;;;;;;1.93;1.00;;;8.70;96.00;;;;;;5096159;28;20184;-44
2022/11/19 01:00:33;;;;;;;2.90;1.37;;;8.70;96.00;;;;;;5095522;28;20173;-44
2022/11/19 01:02:58;;;;;;;1.70;1.20;;;8.70;96.00;;;;;;5095114;28;20181;-43
2022/11/19 01:05:24;;;;;;;1.93;1.20;;;8.70;96.00;;;;;;5096277;28;20196;-42
2022/11/19 01:07:51;;;;;;;1.87;0.93;;;8.70;96.10;;;;;;5095944;28;20241;-44
2022/11/19 01:10:17;;;;;;;1.40;0.77;;;8.60;96.10;;;;;;5095851;28;20211;-43
2022/11/19 01:15:27;;;;;;;1.77;1.13;;;8.60;96.10;;;;;;5096572;28;20244;-44
2022/11/19 01:17:52;;;;;;;2.00;1.20;;;8.60;96.20;;;;;;5097098;28;20421;-43
2022/11/19 01:20:18;;;;;;;1.77;0.90;;;8.60;96.20;;;;;;5095757;28;20631;-45
2022/11/19 01:22:45;;;;;;;1.60;0.80;;;8.60;96.30;;;;;;5096444;28;20574;-42
2022/11/19 01:25:11;;;;;;;1.57;1.00;;;8.60;96.30;;;;;;5096972;28;20169;-44
2022/11/19 01:27:36;;;;;;;2.30;1.20;;;8.60;96.30;;;;;;5081226;28;20415;-43
2022/11/19 01:30:03;;;;;;;1.80;1.10;;;8.60;96.30;;;;;;5101008;28;20427;-44
2022/11/19 01:32:29;;;;;;;2.63;1.30;;;8.60;96.40;;;;;;5100478;28;20177;-43
2022/11/19 01:34:54;;;;;;;2.70;1.33;;;8.60;96.40;;;;;;5101670;28;20425;-43
2022/11/19 01:37:20;;;;;;;2.60;1.03;;;8.60;96.40;;;;;;5100292;28;20266;-43
2022/11/19 01:39:46;;;;;;;3.37;1.70;;;8.60;96.50;;;;;;5099970;28;20468;-44
2022/11/19 01:42:48;;;;;;;1.23;0.93;;;8.60;96.50;;;;;;5099321;28;20178;-45
2022/11/19 01:45:17;;;;;;;2.97;1.50;;;8.60;96.50;;;;;;5085259;28;20189;-43
2022/11/19 01:47:43;;;;;;;1.93;0.90;;;8.60;96.50;;;;;;5099018;28;20425;-43
2022/11/19 01:50:09;;;;;;;1.80;1.40;;;8.60;96.50;;;;;;5098814;28;20411;-44
2022/11/19 01:52:35;;;;;;;1.93;1.73;;;8.60;96.50;;;;;;5098502;28;20226;-43
2022/11/19 01:55:01;;;;;;;2.20;1.97;;;8.60;96.50;;;;;;5080976;28;20767;-46
2022/11/19 01:57:27;;;;;;;3.23;1.73;;;8.60;96.60;;;;;;5081192;28;20208;-42
2022/11/19 01:59:53;;;;;;;2.90;2.03;;;8.60;96.60;;;;;;5099519;28;20464;-42
2022/11/19 02:02:19;;;;;;;2.60;2.07;;;8.60;96.60;;;;;;5098580;28;20419;-44
2022/11/19 02:04:45;;;;;;;3.73;1.97;;;8.50;96.50;;;;;;5081335;28;20417;-44
2022/11/19 02:07:11;;;;;;;3.03;2.07;;;8.50;96.60;;;;;;5081434;28;20427;-43
2022/11/19 02:09:37;;;;;;;1.90;1.70;;;8.50;96.60;;;;;;5081782;28;20425;-43
2022/11/19 02:12:38;;;;;;;2.00;1.80;;;8.50;96.60;;;;;;5082004;28;20424;-43
2022/11/19 02:15:25;;;;;;;2.93;2.10;;;8.50;96.60;;;;;;5098718;28;20415;-46
2022/11/19 02:18:17;;;;;;;2.40;2.10;;;8.60;96.60;;;;;;5079360;28;20421;-47
2022/11/19 02:20:54;;;;;;;2.63;1.90;;;8.60;96.60;;;;;;5094928;28;20419;-42
2022/11/19 02:23:41;;;;;;;2.40;1.93;;;8.60;96.60;;;;;;5082712;28;20865;-44
2022/11/19 02:26:22;;;;;;;2.53;2.00;;;8.60;96.60;;;;;;5098692;28;20412;-43
2022/11/19 02:29:10;;;;;;;3.33;1.97;;;8.60;96.60;;;;;;5078999;28;20879;-44
2022/11/19 02:32:00;;;;;;;1.90;1.70;;;8.60;96.60;;;;;;5100209;28;20455;-45
2022/11/19 02:34:31;;;;;;;2.50;2.03;;;8.60;96.60;;;;;;5098791;28;20821;-42
2022/11/19 02:37:09;;;;;;;2.27;1.70;;;8.60;96.60;;;;;;5081527;28;20991;-47
2022/11/19 02:39:43;;;;;;;2.40;1.73;;;8.60;96.60;;;;;;5099878;28;20483;-45
2022/11/19 02:42:32;;;;;;;3.70;2.40;;;8.60;96.60;;;;;;5082125;28;20422;-45
2022/11/19 02:45:07;;;;;;;2.30;1.90;;;8.60;96.60;;;;;;5081008;28;20440;-44
2022/11/19 02:47:54;;;;;;;2.47;2.13;;;8.60;96.70;;;;;;5097930;28;20406;-43
2022/11/19 02:50:21;;;;;;;3.07;2.00;;;8.50;96.60;;;;;;5081066;28;20552;-44
2022/11/19 02:52:46;;;;;;;2.13;1.90;;;8.50;96.70;;;;;;5081182;28;20419;-44
2022/11/19 02:55:17;;;;;;;2.53;2.03;;;8.50;96.70;;;;;;5099060;28;20414;-43
2022/11/19 02:58:04;;;;;;;2.60;1.97;;;8.50;96.70;;;;;;5099234;28;20489;-43
2022/11/19 03:06:13;;;;;;;2.60;1.67;;;8.60;96.70;;;;;;5099195;28;20496;-43
2022/11/19 03:08:39;;;;;;;2.20;1.97;;;8.60;96.70;;;;;;5099218;28;20480;-43
2022/11/19 03:11:20;;;;;;;3.70;2.17;;;8.60;96.70;;;;;;5097449;28;20442;-44
2022/11/19 03:16:41;;;;;;;1.40;1.10;;;8.50;96.70;;;;;;5096693;28;20516;-46
2022/11/19 03:19:27;;;;;;;2.03;1.60;;;8.50;96.70;;;;;;5079310;28;20850;-45
2022/11/19 03:22:06;;;;;;;2.17;1.67;;;8.50;96.80;;;;;;5080105;28;20427;-44
2022/11/19 03:24:35;;;;;;;2.63;1.30;;;8.50;96.70;;;;;;5063226;28;20533;-44
2022/11/19 03:27:12;;;;;;;1.93;1.50;;;8.50;96.70;;;;;;5098010;28;20422;-44
2022/11/19 03:29:42;;;;;;;2.10;1.60;;;8.50;96.70;;;;;;5080692;28;20465;-42
2022/11/19 03:32:21;;;;;;;2.27;1.40;;;8.50;96.70;;;;;;5098916;28;20412;-44
2022/11/19 03:34:50;;;;;;;4.63;1.50;;;8.50;96.70;;;;;;5080591;28;20919;-43
2022/11/19 03:37:18;;;;;;;2.50;1.70;;;8.50;96.70;;;;;;5079034;28;20911;-45
2022/11/19 03:39:44;;;;;;;2.43;1.70;;;8.50;96.80;;;;;;5062296;28;20461;-44
2022/11/19 03:42:11;;;;;;;2.27;1.50;;;8.50;96.80;;;;;;5078993;28;20423;-42
2022/11/19 03:44:39;;;;;;;1.77;1.43;;;8.50;96.80;;;;;;5096741;28;20420;-43
2022/11/19 03:47:09;;;;;;;1.63;1.37;;;8.50;96.80;;;;;;5079981;28;20452;-41
2022/11/19 03:49:38;;;;;;;1.90;1.60;;;8.50;96.80;;;;;;5079280;28;20802;-41
2022/11/19 03:52:09;;;;;;;2.43;1.80;;;8.50;96.80;;;;;;5079355;28;20833;-44
2022/11/19 03:54:35;;;;;;;1.53;1.40;;;8.50;96.80;;;;;;5079832;28;20745;-42
2022/11/19 03:57:01;;;;;;;2.40;1.80;;;8.50;96.80;;;;;;5097726;28;20509;-42
2022/11/19 03:59:27;;;;;;;3.40;2.20;;;8.50;96.80;;;;;;5080775;28;20438;-42
2022/11/19 04:01:56;;;;;;;2.00;1.80;;;8.50;96.90;;;;;;5098124;28;20425;-42
2022/11/19 04:04:37;;;;;;;3.87;2.33;;;8.50;97.20;;;;;;5098101;28;20415;-42
2022/11/19 04:07:04;;;;;;;2.53;2.20;;;8.50;97.00;;;;;;5095947;28;21011;-41
2022/11/19 04:09:30;;;;;;;2.50;2.30;;;8.50;97.10;;;;;;5095005;28;20489;-42
2022/11/19 04:11:55;;;;;;;5.33;2.63;;;8.40;97.10;;;;;;5096971;28;20697;-44
2022/11/19 04:14:21;;;;;;;3.30;2.57;;;8.40;97.20;;;;;;5097477;28;20216;-41
2022/11/19 04:16:46;;;;;;;2.53;2.30;;;8.40;97.20;;;;;;5096906;28;20213;-42
2022/11/19 04:19:12;;;;;;;3.13;2.50;;;8.40;97.30;;;;;;5096614;28;20172;-41
2022/11/19 04:21:38;;;;;;;2.83;2.43;;;8.40;97.40;;;;;;5097583;28;20208;-44
2022/11/19 04:24:04;;;;;;;2.93;2.70;;;8.40;97.40;;;;;;5097817;28;20271;-42
2022/11/19 04:26:29;;;;;;;2.50;2.23;;;8.40;97.50;;;;;;5096720;28;20567;-44
2022/11/19 04:28:55;;;;;;;3.00;2.70;;;8.40;97.50;;;;;;5095861;28;20509;-44
2022/11/19 04:31:20;;;;;;;2.97;2.60;;;8.40;97.50;;;;;;5078103;28;20180;-44
2022/11/19 04:33:46;;;;;;;2.87;2.67;;;8.40;97.50;;;;;;5094461;28;20653;-42
2022/11/19 04:36:12;;;;;;;3.70;2.50;;;8.40;97.50;;;;;;5094329;28;20246;-43
2022/11/19 04:38:37;;;;;;;2.83;2.33;;;8.40;97.50;;;;;;5095605;28;20185;-42
2022/11/19 04:41:03;;;;;;;2.83;2.53;;;8.40;97.50;;;;;;5096146;28;20183;-43
2022/11/19 04:43:28;;;;;;;2.70;2.50;;;8.40;97.50;;;;;;5095572;28;20180;-42
2022/11/19 04:45:54;;;;;;;2.60;2.30;;;8.40;97.50;;;;;;5096485;28;20578;-42
2022/11/19 04:48:19;;;;;;;2.60;2.40;;;8.50;97.60;;;;;;5096321;28;20208;-45
2022/11/19 04:50:45;;;;;;;2.60;2.40;;;8.40;97.50;;;;;;5097019;28;20460;-44
2022/11/19 04:53:11;;;;;;;3.90;3.00;;;8.40;97.60;;;;;;5096472;28;20661;-42
2022/11/19 04:55:36;;;;;;;4.07;3.00;;;8.40;97.60;;;;;;5096661;28;20227;-44
2022/11/19 04:58:02;;;;;;;2.43;2.23;;;8.40;97.60;;;;;;5096328;28;20175;-42
2022/11/19 05:00:28;;;;;;;2.40;2.20;;;8.50;97.70;;;;;;5097826;28;20545;-41
2022/11/19 05:02:53;;;;;;;4.03;2.10;;;8.40;97.60;;;;;;5101223;28;20550;-45
2022/11/19 05:05:19;;;;;;;3.80;2.63;;;8.50;97.70;;;;;;5101263;28;20551;-43
2022/11/19 05:07:45;;;;;;;2.73;2.40;;;8.40;97.70;;;;;;5100519;28;20186;-44
2022/11/19 05:10:11;;;;;;;2.43;2.17;;;8.40;97.70;;;;;;5101086;28;20173;-42
2022/11/19 05:12:36;;;;;;;3.60;2.30;;;8.50;97.80;;;;;;5101231;28;20662;-43
2022/11/19 05:15:02;;;;;;;2.20;2.00;;;8.40;97.80;;;;;;5101132;28;20188;-43
2022/11/19 05:17:28;;;;;;;3.27;2.97;;;8.40;97.80;;;;;;5101365;28;20239;-43
2022/11/19 05:19:53;;;;;;;2.63;2.30;;;8.40;97.80;;;;;;5100928;28;20307;-45
2022/11/19 05:22:19;;;;;;;2.80;2.60;;;8.40;97.80;;;;;;5100433;28;20181;-42
2022/11/19 05:24:44;;;;;;;2.43;2.20;;;8.40;97.80;;;;;;5098758;28;20194;-43
2022/11/19 05:27:10;;;;;;;2.80;2.43;;;8.40;97.80;;;;;;5099239;28;20177;-42
2022/11/19 05:29:35;;;;;;;3.00;2.40;;;8.40;97.80;;;;;;5100478;28;20177;-44
2022/11/19 05:32:01;;;;;;;2.10;1.70;;;8.40;97.80;;;;;;5100517;28;20261;-43
2022/11/19 05:34:27;;;;;;;2.40;2.13;;;8.40;97.80;;;;;;5099840;28;20467;-41
2022/11/19 05:36:52;;;;;;;2.90;2.30;;;8.40;97.90;;;;;;5099919;28;20294;-43
2022/11/19 05:39:18;;;;;;;1.70;1.60;;;8.50;98.00;;;;;;5100433;28;20586;-44
2022/11/19 05:41:43;;;;;;;2.77;1.87;;;8.50;98.00;;;;;;5100582;28;20213;-43
2022/11/19 05:44:09;;;;;;;2.47;2.20;;;8.40;98.00;;;;;;5099960;28;20188;-43
2022/11/19 05:46:35;;;;;;;2.60;1.63;;;8.40;98.00;;;;;;5101085;28;20177;-42
2022/11/19 05:49:00;;;;;;;2.00;1.77;;;8.40;98.00;;;;;;5100525;28;20182;-42
2022/11/19 05:51:26;;;;;;;1.60;1.50;;;8.40;98.00;;;;;;5099791;28;20246;-41
2022/11/19 05:53:52;;;;;;;3.17;2.10;;;8.40;98.00;;;;;;5098625;28;20201;-42
2022/11/19 05:56:17;;;;;;;2.53;2.17;;;8.50;98.10;;;;;;5098644;28;20249;-44
2022/11/19 05:58:43;;;;;;;2.70;2.03;;;8.50;98.10;;;;;;5097564;28;20208;-41
2022/11/19 06:01:08;;;;;;;3.30;1.97;;;8.50;98.10;;;;;;5098227;28;20215;-42
2022/11/19 06:03:34;;;;;;;1.93;1.73;;;8.50;98.10;;;;;;5097104;28;20179;-44
2022/11/19 06:05:59;;;;;;;2.17;1.97;;;8.50;98.10;;;;;;5098283;28;20268;-41
2022/11/19 06:08:25;;;;;;;2.30;2.10;;;8.50;98.10;;;;;;5098805;28;20246;-44
2022/11/19 06:10:51;;;;;;;2.50;1.93;;;8.40;98.00;;;;;;5098376;28;20279;-42
2022/11/19 06:13:16;;;;;;;3.13;1.93;;;8.40;98.10;;;;;;5097258;28;20200;-41
2022/11/19 06:15:42;;;;;;;2.03;1.80;;;8.40;98.20;;;;;;5081230;28;20223;-41
2022/11/19 06:18:08;;;;;;;2.13;1.90;;;8.40;98.30;;;;;;5097314;28;20202;-43
2022/11/19 06:20:33;;;;;;;3.00;2.10;;;8.30;98.50;;;;;;5097444;28;20302;-45
2022/11/19 06:22:59;;;;;;;1.87;1.67;;;8.20;98.50;;;;;;5097181;28;20213;-41
2022/11/19 06:25:24;;;;;;;2.10;1.90;;;8.20;98.70;;;;;;5097588;28;20167;-43
2022/11/19 06:27:50;;;;;;;2.40;1.90;;;8.20;98.80;;;;;;5063657;28;20463;-40
2022/11/19 06:30:16;;;;;;;4.00;2.03;;;8.20;98.80;;;;;;5080512;28;20180;-41
2022/11/19 06:32:42;;;;;;;2.50;2.30;;;8.20;98.90;;;;;;5081969;28;20890;-42
2022/11/19 06:35:08;;;;;;;3.23;1.70;;;8.10;98.90;;;;;;5099501;28;20427;-41
2022/11/19 06:37:34;;;;;;;1.90;1.73;;;8.10;99.00;;;;;;5097120;28;20622;-41
2022/11/19 06:40:00;;;;;;;3.00;2.80;;;8.10;99.00;;;;;;5096889;28;20514;-41
2022/11/19 06:42:35;;;;;;;2.33;1.97;;;8.10;99.10;;;;;;5062126;28;20430;-41
2022/11/19 06:45:05;;;;;;;2.23;2.03;;;8.10;99.10;;;;;;5064091;28;20500;-40
2022/11/19 06:47:31;;;;;;;2.47;1.70;;;8.10;99.10;;;;;;5098531;28;20716;-43
2022/11/19 06:49:57;;;;;;;2.20;2.00;;;8.10;99.10;;;;;;5078896;28;20560;-44
2022/11/19 06:52:23;;;;;;;2.17;1.97;;;8.10;99.20;;;;;;5098139;28;20785;-41
2022/11/19 06:54:48;;;;;;;2.50;2.10;;;8.10;99.20;;;;;;5097547;28;20172;-40
2022/11/19 06:57:14;;;;;;;2.00;1.80;;;8.00;99.20;;;;;;5081159;28;20236;-42
2022/11/19 06:59:40;;;;;;;2.13;1.93;;;8.10;99.20;;;;;;5099890;28;20529;-40
2022/11/19 07:02:07;;;;;;;1.60;1.50;;;8.10;99.20;;;;;;5098944;28;20189;-41
2022/11/19 07:04:32;;;;;;;2.07;1.53;;;8.10;99.10;;;;;;5064382;28;20181;-40
2022/11/19 07:06:58;;;;;;;1.47;1.20;;;8.10;99.10;;;;;;5097312;28;20850;-41
2022/11/19 07:09:23;;;;;;;2.00;1.33;;;8.10;99.10;;;;;;5080090;28;20607;-42
2022/11/19 07:11:49;;;;;;;1.20;1.00;;;8.10;99.00;;;;;;5080534;28;20616;-42
2022/11/19 07:14:15;;;;;;;1.60;1.30;;;8.10;99.00;;;;;;5095829;28;20196;-41
2022/11/19 07:16:40;;;;;;;1.50;1.37;;;8.10;99.00;;;;;;5076328;28;20307;-41
2022/11/19 07:19:07;;;;;;;1.87;1.47;;;8.20;99.00;;;;;;5095624;28;20184;-41
2022/11/19 07:21:33;;;;;;;2.50;1.37;;;8.20;98.90;;;;;;5095551;28;20588;-43
2022/11/19 07:23:59;;;;;;;1.40;1.20;;;8.30;98.90;;;;;;5097194;28;20451;-41
2022/11/19 07:26:25;;;;;;;1.90;1.27;;;8.30;98.80;;;;;;5098877;28;20461;-40
2022/11/19 07:28:51;;;;;;;1.73;1.23;;;8.40;98.90;;;;;;5097868;28;20428;-40
2022/11/19 07:31:17;;;;;;;1.70;1.17;;;8.50;98.90;;;;;;5096867;28;20449;-40
2022/11/19 07:33:43;;;;;;;2.50;1.30;;;8.80;99.10;;;;;;5096495;28;20226;-42
2022/11/19 07:36:10;;;;;;;1.97;1.30;;;9.00;98.80;;;;;;5076215;28;20478;-40
2022/11/19 07:38:37;;;;;;;3.43;1.00;;;9.40;98.90;;;;;;5077182;28;20418;-40
2022/11/19 07:42:48;;;;;;;1.53;1.00;;;10.00;97.80;;;;;;5095409;28;20507;-41
2022/11/19 07:43:52;;;;;;;1.20;0.90;;;10.80;96.70;;;;;;5096136;28;20501;-42
2022/11/19 07:46:17;;;;;;;1.77;0.90;;;11.40;94.60;;;;;;5097120;28;20427;-40
2022/11/19 07:48:43;;;;;;;1.60;1.20;;;11.50;93.40;;;;;;5095605;28;20165;-43
2022/11/19 07:51:09;;;;;;;1.57;1.20;;;11.50;92.80;;;;;;5095698;28;20188;-41
2022/11/19 07:53:35;;;;;;;1.20;0.90;;;11.30;92.50;;;;;;5096167;28;20496;-41
2022/11/19 07:56:01;;;;;;;1.30;0.90;;;11.10;92.40;;;;;;5095089;28;20248;-40
2022/11/19 07:58:28;;;;;;;1.20;0.70;;;10.90;92.50;;;;;;5094568;28;20446;-38
2022/11/19 08:00:54;;;;;;;1.13;0.77;;;10.70;92.80;;;;;;5094263;28;20411;-41
2022/11/19 08:03:20;;;;;;;1.10;0.80;;;10.50;93.00;;;;;;5095600;28;20275;-41
2022/11/19 08:05:45;;;;;;;2.50;1.17;;;10.40;93.30;;;;;;5094503;28;20180;-42
2022/11/19 08:08:11;;;;;;;3.00;1.37;;;10.40;93.70;;;;;;5096637;28;20585;-42
2022/11/19 08:10:37;;;;;;;1.40;1.07;;;10.30;93.90;;;;;;5096729;28;20191;-41
2022/11/19 08:13:03;;;;;;;1.73;1.13;;;10.40;94.10;;;;;;5097100;28;20175;-40
2022/11/19 08:15:30;;;;;;;1.47;1.07;;;10.60;94.30;;;;;;5094594;28;20639;-41
2022/11/19 08:18:14;;;;;;;2.80;1.30;;;10.70;94.20;;;;;;5096802;28;20480;-42
2022/11/19 08:20:41;;;;;;;2.50;1.30;;;10.90;94.00;;;;;;5096835;28;20419;-42
2022/11/19 08:23:08;;;;;;;1.80;1.20;;;11.00;93.60;;;;;;5097149;28;20414;-41
2022/11/19 08:25:33;;;;;;;1.60;1.00;;;11.10;93.40;;;;;;5096759;28;20417;-40
2022/11/19 08:28:00;;;;;;;3.23;1.30;;;11.10;93.20;;;;;;5096047;28;20476;-40
2022/11/19 08:30:26;;;;;;;2.23;0.80;;;11.30;93.30;;;;;;5095061;28;20173;-44
2022/11/19 08:32:51;;;;;;;2.53;1.10;;;11.40;93.20;;;;;;5095097;28;20675;-43
2022/11/19 08:35:17;;;;;;;1.33;1.10;;;11.70;93.10;;;;;;5093479;28;20161;-42
2022/11/19 08:37:42;;;;;;;1.70;1.00;;;12.00;92.70;;;;;;5094972;28;20262;-44
2022/11/19 08:40:08;;;;;;;2.30;1.20;;;12.40;92.30;;;;;;5095026;28;20176;-41
2022/11/19 08:45:18;;;;;;;1.60;1.03;;;12.80;90.90;;;;;;5091091;28;20480;-41
2022/11/19 08:47:44;;;;;;;1.67;0.80;;;12.90;90.30;;;;;;5091449;28;20605;-53
2022/11/19 08:50:09;;;;;;;1.53;0.90;;;12.90;89.90;;;;;;5090687;28;20507;-44
2022/11/19 08:52:36;;;;;;;2.03;1.23;;;12.90;89.40;;;;;;5091949;28;20505;-41
2022/11/19 08:55:02;;;;;;;1.90;1.00;;;12.90;89.20;;;;;;5092897;28;20474;-41
2022/11/19 08:57:27;;;;;;;1.83;1.00;;;13.10;89.00;;;;;;5091511;28;20466;-45
2022/11/19 08:59:53;;;;;;;3.57;1.07;;;13.20;88.70;;;;;;5092714;28;20216;-42
2022/11/19 09:02:19;;;;;;;2.10;1.40;;;13.20;88.30;;;;;;5095932;28;20194;-42
2022/11/19 09:04:44;;;;;;;2.00;1.00;;;13.20;88.40;;;;;;5096255;28;20547;-42
2022/11/19 09:07:10;;;;;;;1.60;1.20;;;13.60;88.80;;;;;;5094248;28;20192;-42
2022/11/19 09:09:35;;;;;;;1.60;0.97;;;13.80;87.10;;;;;;5093871;28;20244;-41
2022/11/19 09:12:01;;;;;;;3.23;1.20;;;14.00;86.40;;;;;;5094453;28;20445;-41
2022/11/19 09:14:27;;;;;;;1.60;1.00;;;14.10;85.40;;;;;;5094414;28;20188;-42
2022/11/19 09:16:52;;;;;;;1.40;0.93;;;14.10;85.00;;;;;;5095165;28;20204;-42
2022/11/19 09:19:18;;;;;;;2.20;1.00;;;14.10;84.80;;;;;;5094873;28;20455;-41
2022/11/19 09:21:44;;;;;;;1.37;1.13;;;14.20;84.70;;;;;;5096126;28;20172;-40
2022/11/19 09:24:09;;;;;;;3.97;1.30;;;14.20;83.70;;;;;;5096403;28;20174;-42
2022/11/19 09:26:35;;;;;;;1.83;1.00;;;14.20;83.40;;;;;;5095795;28;20514;-43
2022/11/19 09:29:01;;;;;;;1.93;1.00;;;14.10;83.20;;;;;;5096725;28;20181;-42
2022/11/19 09:31:27;;;;;;;1.83;1.30;;;14.00;83.20;;;;;;5096698;28;20208;-42
2022/11/19 09:33:53;;;;;;;1.40;1.00;;;14.30;83.80;;;;;;5096687;28;20469;-44
2022/11/19 09:36:19;;;;;;;2.03;1.20;;;15.30;83.70;;;;;;5095813;28;20220;-44
2022/11/19 09:38:46;;;;;;;2.60;1.23;;;16.20;80.60;;;;;;5096538;28;20455;-43
2022/11/19 09:41:36;;;;;;;2.10;1.10;;;17.10;78.10;;;;;;5096916;28;20406;-45
2022/11/19 09:44:29;;;;;;;1.50;1.10;;;17.60;73.60;;;;;;5096613;28;20570;-41
2022/11/19 09:46:55;;;;;;;2.60;1.23;;;17.40;71.20;;;;;;5078573;28;20929;-41
2022/11/19 09:49:28;;;;;;;2.17;0.90;;;17.00;70.40;;;;;;5100421;28;20720;-42
2022/11/19 09:51:59;;;;;;;1.97;0.93;;;16.50;70.90;;;;;;5082877;28;20402;-43
2022/11/19 09:54:25;;;;;;;2.73;1.20;;;16.10;71.80;;;;;;5082092;28;20464;-41
2022/11/19 09:56:53;;;;;;;2.40;1.23;;;15.80;72.80;;;;;;5081591;28;20820;-42
2022/11/19 09:59:30;;;;;;;2.23;1.30;;;15.50;73.70;;;;;;5098501;28;20442;-44
2022/11/19 10:01:56;;;;;;;3.30;1.27;;;15.30;74.50;;;;;;5099269;28;20422;-41
2022/11/19 10:04:24;;;;;;;1.50;1.27;;;15.10;75.20;;;;;;5097940;28;20856;-40
2022/11/19 10:07:01;;;;;;;1.77;1.40;;;15.00;75.90;;;;;;5099615;28;20696;-42
2022/11/19 10:09:48;;;;;;;1.93;1.37;;;14.80;76.10;;;;;;5097165;28;20745;-43
2022/11/19 10:12:23;;;;;;;1.50;1.30;;;14.60;76.40;;;;;;5097075;28;20869;-41
2022/11/19 10:15:03;;;;;;;3.10;1.30;;;14.30;76.70;;;;;;5078906;28;21067;-41
2022/11/19 10:17:48;;;;;;;1.53;1.37;;;14.00;77.20;;;;;;5096345;28;20465;-42
2022/11/19 10:20:16;;;;;;;2.20;1.30;;;13.80;77.60;;;;;;5095389;28;20426;-41
2022/11/19 10:22:54;;;;;;;2.00;1.50;;;13.70;78.20;;;;;;5096655;28;20415;-41
2022/11/19 10:25:31;;;;;;;2.00;1.60;;;13.60;78.70;;;;;;5097805;28;20426;-44
2022/11/19 10:28:18;;;;;;;2.10;1.33;;;13.50;79.10;;;;;;5096893;28;20430;-44
2022/11/19 10:30:53;;;;;;;2.13;1.83;;;13.30;79.40;;;;;;5079524;28;20893;-40
2022/11/19 10:33:34;;;;;;;1.80;1.27;;;13.30;80.00;;;;;;5097321;28;20445;-43
2022/11/19 10:36:09;;;;;;;3.00;1.40;;;13.20;80.40;;;;;;5099082;28;20876;-42
2022/11/19 10:38:51;;;;;;;1.60;1.40;;;13.20;80.70;;;;;;5080376;28;20862;-42
2022/11/19 10:41:55;;;;;;;2.13;1.37;;;13.10;80.60;;;;;;5098827;28;20455;-41
2022/11/19 10:44:39;;;;;;;2.30;1.70;;;13.10;80.80;;;;;;5097197;28;20423;-41
2022/11/19 10:47:43;;;;;;;3.10;2.00;;;13.10;81.00;;;;;;5080785;28;20876;-41
2022/11/19 10:50:19;;;;;;;1.80;1.37;;;13.40;81.70;;;;;;5097514;28;20434;-42
2022/11/19 10:53:05;;;;;;;2.17;1.70;;;14.30;80.70;;;;;;5099020;28;20414;-42
2022/11/19 10:55:44;;;;;;;1.77;1.33;;;16.80;79.60;;;;;;5097469;28;20561;-41
2022/11/19 10:58:09;;;;;;;4.27;1.50;;;20.10;76.60;;;;;;5080105;28;20432;-42
2022/11/19 11:00:37;;;;;;;1.60;1.10;;;22.30;67.40;;;;;;5096535;28;20446;-41
2022/11/19 11:03:04;;;;;;;2.27;1.00;;;23.20;61.20;;;;;;5077523;28;20481;-41
2022/11/19 11:05:30;;;;;;;3.80;1.73;;;23.40;59.40;;;;;;5077949;28;20455;-42
2022/11/19 11:07:59;;;;;;;1.30;0.80;;;23.10;57.60;;;;;;5095472;28;20410;-42
2022/11/19 11:10:32;;;;;;;2.10;1.40;;;22.60;57.90;;;;;;5096466;28;20795;-43
2022/11/19 11:16:19;;;;;;;2.30;1.23;;;21.30;57.00;;;;;;5081557;28;21024;-41
2022/11/19 11:18:45;;;;;;;2.13;1.10;;;20.10;57.30;;;;;;5078997;28;20433;-41
2022/11/19 11:21:37;;;;;;;2.80;1.23;;;19.50;58.00;;;;;;5078449;28;20422;-42
2022/11/19 11:24:04;;;;;;;3.10;0.93;;;19.00;56.70;;;;;;5096914;28;21016;-42
2022/11/19 11:26:32;;;;;;;1.67;1.07;;;18.80;54.90;;;;;;5096815;28;20720;-41
2022/11/19 11:28:59;;;;;;;1.40;1.00;;;18.60;54.60;;;;;;5078507;28;20426;-42
2022/11/19 11:31:44;;;;;;;1.23;0.80;;;18.40;54.00;;;;;;5096420;28;20449;-41
2022/11/19 11:37:32;;;;;;;1.70;0.93;;;18.10;53.90;;;;;;5097350;28;20577;-44
2022/11/19 11:39:59;;;;;;;2.23;1.10;;;18.10;53.60;;;;;;5080761;28;20419;-43
2022/11/19 11:42:27;;;;;;;1.77;1.20;;;18.00;53.50;;;;;;5079785;28;20457;-43
2022/11/19 11:44:58;;;;;;;1.83;0.70;;;17.90;53.40;;;;;;5080224;28;20485;-44
2022/11/19 11:47:45;;;;;;;1.57;0.80;;;17.70;53.20;;;;;;5079661;28;20488;-43
2022/11/19 11:50:27;;;;;;;1.27;0.80;;;17.30;53.50;;;;;;5095833;28;20732;-42
2022/11/19 11:52:56;;;;;;;4.60;1.20;;;16.90;53.60;;;;;;5078824;28;20453;-43
2022/11/19 11:55:23;;;;;;;1.50;1.10;;;16.40;53.70;;;;;;5096408;28;20900;-42
2022/11/19 11:57:58;;;;;;;2.40;0.83;;;15.90;54.10;;;;;;5097424;28;20808;-44
2022/11/19 12:00:37;;;;;;;4.17;1.33;;;15.40;54.60;;;;;;5095971;28;20759;-44
2022/11/19 12:03:05;;;;;;;1.63;0.97;;;15.00;55.40;;;;;;5077993;28;20493;-41
2022/11/19 12:05:57;;;;;;;2.70;1.20;;;14.60;56.10;;;;;;5096599;28;20415;-44
2022/11/19 12:08:53;;;;;;;1.93;1.10;;;14.30;57.00;;;;;;5077046;28;20441;-41
2022/11/19 12:11:52;;;;;;;2.00;0.90;;;13.90;57.70;;;;;;5075228;28;20431;-42
2022/11/19 12:14:36;;;;;;;1.77;1.00;;;13.60;58.40;;;;;;5075407;28;20451;-42
2022/11/19 12:17:18;;;;;;;1.63;1.10;;;13.40;59.10;;;;;;5107608;28;20875;-44
2022/11/19 12:19:48;;;;;;;1.20;1.00;;;13.10;59.70;;;;;;5115907;28;20414;-42
2022/11/19 12:22:38;;;;;;;2.40;1.37;;;12.90;60.20;;;;;;5114842;28;20907;-47
2022/11/19 12:25:41;;;;;;;2.10;1.33;;;12.70;61.10;;;;;;5112361;28;20410;-42
2022/11/19 12:28:22;;;;;;;1.63;1.03;;;12.50;62.00;;;;;;5115159;28;20761;-44
2022/11/19 12:31:10;;;;;;;1.77;0.80;;;12.40;62.90;;;;;;5115625;28;20421;-42
2022/11/19 12:33:40;;;;;;;2.30;0.97;;;12.20;63.90;;;;;;5115641;28;20422;-42
2022/11/19 12:36:18;;;;;;;1.60;0.83;;;12.20;65.60;;;;;;5111820;28;20480;-43
2022/11/19 12:38:49;;;;;;;1.13;0.80;;;12.10;65.70;;;;;;5114481;28;20456;-41
2022/11/19 12:41:25;;;;;;;1.50;1.10;;;12.00;66.20;;;;;;5097021;28;20440;-41
2022/11/19 12:43:59;;;;;;;4.90;1.27;;;11.90;66.70;;;;;;5115466;28;20437;-43
2022/11/19 12:46:42;;;;;;;1.87;0.93;;;11.80;67.10;;;;;;5114019;28;20482;-43
2022/11/19 12:49:19;;;;;;;1.93;1.10;;;11.70;68.00;;;;;;5116416;28;20508;-42
2022/11/19 12:51:51;;;;;;;1.77;1.27;;;11.60;68.70;;;;;;5096308;28;20463;-44
2022/11/19 12:54:54;;;;;;;1.47;0.97;;;11.60;69.50;;;;;;5116597;28;20704;-42
2022/11/19 12:57:33;;;;;;;1.50;1.00;;;11.50;70.40;;;;;;5013885;28;20519;-43
2022/11/19 13:00:21;;;;;;;2.07;1.20;;;11.40;71.10;;;;;;5105370;28;20420;-42
2022/11/19 13:03:05;;;;;;;1.40;1.00;;;11.40;72.10;;;;;;5097358;28;20480;-42
2022/11/19 13:06:13;;;;;;;1.70;1.57;;;11.30;72.60;;;;;;5115136;28;20438;-42
2022/11/19 13:08:43;;;;;;;1.30;1.10;;;11.20;73.20;;;;;;5058670;28;20518;-40
2022/11/19 13:11:27;;;;;;;2.60;1.60;;;11.20;73.90;;;;;;5094345;28;20433;-42
2022/11/19 13:14:02;;;;;;;2.17;1.33;;;11.10;74.30;;;;;;5114382;28;20405;-44
2022/11/19 13:16:30;;;;;;;2.10;1.57;;;11.10;75.00;;;;;;5095867;28;20518;-43
2022/11/19 13:19:18;;;;;;;1.90;1.57;;;11.10;75.70;;;;;;5097365;28;20841;-41
2022/11/19 13:21:58;;;;;;;1.97;1.47;;;11.00;77.00;;;;;;5096903;28;20428;-42
2022/11/19 13:24:36;;;;;;;2.80;1.47;;;10.90;77.00;;;;;;5118492;28;20485;-42
2022/11/19 13:27:12;;;;;;;1.97;1.40;;;10.90;77.70;;;;;;5099255;28;20891;-45
2022/11/19 13:29:56;;;;;;;3.33;1.53;;;10.90;78.30;;;;;;5095847;28;20524;-41
2022/11/19 13:32:30;;;;;;;2.17;1.47;;;10.80;78.80;;;;;;5099763;28;20478;-41
2022/11/19 13:35:06;;;;;;;1.50;1.37;;;10.80;79.30;;;;;;5097263;28;20839;-42